Decoded Metar for LFRB (BREST in FRANCE) (IATA:BES) | Meteo·Mobile Aviation Weather
aviador You're here:

LFRB Decoded Metar

BREST in FRANCE
Report Time2019-07-16 11:00:00
UTC Time2019-07-16 11:08:11
Flight Rules vfr VFR
WindVRB at 05 kt
Visibility9999 m
Phenomena:N/A
Clouds:N/A
Expected CloudBase > 4,400 ft AGL from Temp-Dew spread
CeilingNone
Temp23°C (ISA +9)
Dew Point12°C (50% RH)
AAT21.8°C
QNH1019 hPa
Density Alt1,335 ft
Elevation338 ft
Report Wrong Elevation
Raw Report
METAR LFRB 161100Z AUTO VRB05KT CAVOK 23/12 Q1019 NOSIG=

Extra information for LFRB:More info

Metar Taf Metar & Taf Last 4 Metars F.Rules Stats Wind Profile Meteogram Temp Stats Airport Information Weather charts Add Link Nearby VenuesMetar ALERT Operation Metar Decoded Social comments